Time,TemperatureF,DewpointF,PressureIn,WindDirection,WindDirectionDegrees,WindSpeedMPH,WindSpeedGustMPH,Humidity,HourlyPrecipIn,Conditions,Clouds,dailyrainin,SoftwareType,DateUTC
2013-05-16 00:00:00,71.5,63.5,29.95,SE,135,1.0,7.0,76,0.00,,,-99.99,WeatherLink 5.6,2013-05-16 05:00:00,
2013-05-16 00:30:00,71.6,63.3,29.95,South,180,2.0,7.0,75,0.00,,,-99.99,WeatherLink 5.6,2013-05-16 05:30:00,
2013-05-16 01:00:00,71.6,63.6,29.95,South,180,1.0,9.0,76,0.00,,,-99.99,WeatherLink 5.6,2013-05-16 06:00:00,
2013-05-16 01:30:00,71.8,64.6,29.94,SSW,202,3.0,10.0,78,0.00,,,-99.99,WeatherLink 5.6,2013-05-16 06:30:00,
2013-05-16 02:00:00,71.3,64.8,29.92,SSE,157,2.0,7.0,80,0.00,,,-99.99,WeatherLink 5.6,2013-05-16 07:00:00,
2013-05-16 02:30:00,71.3,65.5,29.92,SSE,157,1.0,7.0,82,0.00,,,-99.99,WeatherLink 5.6,2013-05-16 07:30:00,
2013-05-16 03:00:00,71.5,65.4,29.92,SSW,202,1.0,10.0,81,0.00,,,-99.99,WeatherLink 5.6,2013-05-16 08:00:00,
2013-05-16 03:30:00,71.5,65.4,29.93,South,180,1.0,6.0,81,0.00,,,-99.99,WeatherLink 5.6,2013-05-16 08:30:00,
2013-05-16 04:00:00,71.3,65.2,29.92,SSW,202,1.0,6.0,81,0.00,,,-99.99,WeatherLink 5.6,2013-05-16 09:00:00,
2013-05-16 04:30:00,71.1,65.3,29.92,SE,135,1.0,7.0,82,0.00,,,-99.99,WeatherLink 5.6,2013-05-16 09:30:00,
2013-05-16 05:00:00,71.5,65.4,29.92,SSE,157,2.0,7.0,81,0.00,,,-99.99,WeatherLink 5.6,2013-05-16 10:00:00,
2013-05-16 05:30:00,70.9,66.2,29.92,SSE,157,0.0,1.0,85,0.00,,,-99.99,WeatherLink 5.6,2013-05-16 10:30:00,
2013-05-16 06:00:00,70.8,66.4,29.92,SE,135,0.0,5.0,86,0.00,,,-99.99,WeatherLink 5.6,2013-05-16 11:00:00,
2013-05-16 06:30:00,70.4,66.7,29.93,SE,135,0.0,6.0,88,0.00,,,-99.99,WeatherLink 5.6,2013-05-16 11:30:00,
2013-05-16 07:00:00,70.6,66.9,29.94,SE,135,1.0,6.0,88,0.00,,,-99.99,WeatherLink 5.6,2013-05-16 12:00:00,
2013-05-16 07:30:00,72.3,67.9,29.95,SE,135,0.0,5.0,86,0.00,,,-99.99,WeatherLink 5.6,2013-05-16 12:30:00,
2013-05-16 08:00:00,74.0,68.2,29.94,SE,135,3.0,11.0,82,0.00,,,-99.99,WeatherLink 5.6,2013-05-16 13:00:00,
2013-05-16 08:30:00,76.1,68.0,29.94,SSE,157,3.0,12.0,76,0.00,,,-99.99,WeatherLink 5.6,2013-05-16 13:30:00,
2013-05-16 09:00:00,75.8,66.9,29.95,SE,135,3.0,13.0,74,0.00,,,-99.99,WeatherLink 5.6,2013-05-16 14:00:00,
2013-05-16 09:30:00,76.3,67.4,29.95,SSE,157,2.0,11.0,74,0.00,,,-99.99,WeatherLink 5.6,2013-05-16 14:30:00,
2013-05-16 10:00:00,76.1,68.4,29.95,SSW,202,3.0,12.0,77,0.00,,,-99.99,WeatherLink 5.6,2013-05-16 15:00:00,
2013-05-16 10:30:00,77.2,67.5,29.95,SSE,157,5.0,12.0,72,0.00,,,-99.99,WeatherLink 5.6,2013-05-16 15:30:00,
2013-05-16 11:00:00,78.5,68.3,29.96,SSW,202,4.0,14.0,71,0.00,,,-99.99,WeatherLink 5.6,2013-05-16 16:00:00,
2013-05-16 11:30:00,79.4,67.5,29.96,SSW,202,4.0,12.0,67,0.00,,,-99.99,WeatherLink 5.6,2013-05-16 16:30:00,
2013-05-16 12:00:00,80.3,68.8,29.95,SSW,202,3.0,12.0,68,0.00,,,-99.99,WeatherLink 5.6,2013-05-16 17:00:00,
2013-05-16 12:30:00,79.8,67.9,29.94,SSW,202,4.0,12.0,67,0.00,,,-99.99,WeatherLink 5.6,2013-05-16 17:30:00,
2013-05-16 13:00:00,79.2,68.1,29.93,SSW,202,4.0,15.0,69,0.00,,,-99.99,WeatherLink 5.6,2013-05-16 18:00:00,
2013-05-16 13:30:00,79.8,68.3,29.93,SSW,202,5.0,15.0,68,0.00,,,-99.99,WeatherLink 5.6,2013-05-16 18:30:00,
2013-05-16 14:00:00,80.5,69.4,29.92,SE,135,5.0,14.0,69,0.00,,,-99.99,WeatherLink 5.6,2013-05-16 19:00:00,
2013-05-16 14:30:00,79.0,68.4,29.92,SE,135,6.0,20.0,70,0.00,,,-99.99,WeatherLink 5.6,2013-05-16 19:30:00,
2013-05-16 15:00:00,79.9,68.0,29.91,SE,135,5.0,14.0,67,0.00,,,-99.99,WeatherLink 5.6,2013-05-16 20:00:00,
2013-05-16 15:30:00,78.6,69.2,29.90,SE,135,6.0,16.0,73,0.00,,,-99.99,WeatherLink 5.6,2013-05-16 20:30:00,
2013-05-16 16:00:00,77.7,68.7,29.89,SE,135,7.0,16.0,74,0.00,,,-99.99,WeatherLink 5.6,2013-05-16 21:00:00,
2013-05-16 16:30:00,77.7,68.7,29.89,SE,135,7.0,16.0,74,0.00,,,-99.99,WeatherLink 5.6,2013-05-16 21:30:00,
2013-05-16 17:00:00,78.1,69.5,29.88,SE,135,5.0,16.0,75,0.00,,,-99.99,WeatherLink 5.6,2013-05-16 22:00:00,
2013-05-16 17:30:00,77.0,69.2,29.88,SE,135,7.0,17.0,77,0.00,,,-99.99,WeatherLink 5.6,2013-05-16 22:30:00,
2013-05-16 18:00:00,76.5,69.5,29.87,SE,135,8.0,18.0,79,0.00,,,-99.99,WeatherLink 5.6,2013-05-16 23:00:00,
2013-05-16 18:30:00,76.3,69.7,29.87,SE,135,7.0,17.0,80,0.00,,,-99.99,WeatherLink 5.6,2013-05-16 23:30:00,
2013-05-16 19:00:00,75.3,69.4,29.88,SE,135,6.0,16.0,82,0.00,,,-99.99,WeatherLink 5.6,2013-05-17 00:00:00,
2013-05-16 19:30:00,74.6,69.8,29.87,SSE,157,6.0,15.0,85,0.00,,,-99.99,WeatherLink 5.6,2013-05-17 00:30:00,
2013-05-16 20:00:00,73.9,69.8,29.88,SE,135,6.0,14.0,87,0.00,,,-99.99,WeatherLink 5.6,2013-05-17 01:00:00,
2013-05-16 20:30:00,73.5,69.7,29.88,SE,135,5.0,13.0,88,0.00,,,-99.99,WeatherLink 5.6,2013-05-17 01:30:00,
2013-05-16 21:00:00,73.3,69.5,29.89,SE,135,5.0,13.0,88,0.00,,,-99.99,WeatherLink 5.6,2013-05-17 02:00:00,
2013-05-16 21:30:00,73.3,69.5,29.90,SE,135,5.0,13.0,88,0.00,,,-99.99,WeatherLink 5.6,2013-05-17 02:30:00,
2013-05-16 22:00:00,73.3,69.9,29.91,SE,135,5.0,12.0,89,0.00,,,-99.99,WeatherLink 5.6,2013-05-17 03:00:00,
2013-05-16 22:30:00,73.2,69.8,29.91,SE,135,5.0,12.0,89,0.00,,,-99.99,WeatherLink 5.6,2013-05-17 03:30:00,
2013-05-16 23:00:00,72.8,69.4,29.89,SE,135,6.0,12.0,89,0.00,,,-99.99,WeatherLink 5.6,2013-05-17 04:00:00,
2013-05-16 23:30:00,72.8,69.4,29.90,SSE,157,5.0,17.0,89,0.00,,,-99.99,WeatherLink 5.6,2013-05-17 04:30:00,